createdAt,value
2018-05-17T00:01:16.897Z,12.93
2018-05-17T00:03:20.420Z,16.07
2018-05-17T00:05:24.600Z,15.73
2018-05-17T00:07:28.179Z,14.43
2018-05-17T00:09:31.821Z,14.77
2018-05-17T00:11:35.387Z,16.63
2018-05-17T00:13:38.957Z,14.83
2018-05-17T00:15:47.912Z,15.83
2018-05-17T00:17:51.422Z,16.37
2018-05-17T00:19:55.006Z,15.47
2018-05-17T00:21:58.511Z,16.83
2018-05-17T00:24:02.138Z,15.20
2018-05-17T00:26:05.626Z,15.17
2018-05-17T00:28:09.318Z,15.90
2018-05-17T00:30:12.925Z,15.13
2018-05-17T00:32:16.457Z,15.73
2018-05-17T00:34:20.121Z,16.63
2018-05-17T00:36:23.683Z,16.60
2018-05-17T00:38:27.329Z,14.40
2018-05-17T00:40:30.864Z,18.60
2018-05-17T00:42:34.822Z,20.40
2018-05-17T00:44:38.366Z,13.97
2018-05-17T00:46:41.885Z,19.33
2018-05-17T00:48:45.458Z,19.27
2018-05-17T00:50:49.078Z,17.20
2018-05-17T00:53:03.695Z,16.57
2018-05-17T00:55:07.259Z,16.57
2018-05-17T00:57:10.851Z,17.77
2018-05-17T00:59:14.457Z,20.13
2018-05-17T01:01:18.069Z,15.30
2018-05-17T01:03:21.735Z,19.00
2018-05-17T01:05:25.314Z,15.87
2018-05-17T01:07:28.911Z,15.73
2018-05-17T01:09:32.487Z,17.20
2018-05-17T01:11:39.062Z,17.17
2018-05-17T01:13:42.606Z,18.30
2018-05-17T01:15:46.163Z,18.60
2018-05-17T01:17:49.750Z,18.00
2018-05-17T01:19:53.368Z,20.47
2018-05-17T01:21:56.935Z,21.03
2018-05-17T01:24:00.493Z,20.83
2018-05-17T01:26:04.048Z,23.40
2018-05-17T01:28:07.625Z,22.00
2018-05-17T01:30:10.888Z,23.13
2018-05-17T01:32:14.463Z,24.17
2018-05-17T01:34:18.101Z,31.47
2018-05-17T01:36:21.665Z,34.93
2018-05-17T01:38:26.924Z,36.80
2018-05-17T01:40:30.590Z,31.77
2018-05-17T01:42:34.454Z,27.47
2018-05-17T01:44:38.040Z,27.03
2018-05-17T01:46:41.591Z,28.57
2018-05-17T01:48:45.191Z,39.17
2018-05-17T01:50:48.750Z,33.53
2018-05-17T01:52:52.335Z,45.10
2018-05-17T01:54:55.936Z,42.50
2018-05-17T01:56:59.551Z,51.40
2018-05-17T01:59:03.177Z,49.87
2018-05-17T02:01:06.415Z,45.07
2018-05-17T02:03:09.973Z,56.83
2018-05-17T02:05:13.558Z,56.83
2018-05-17T02:07:17.142Z,56.33
2018-05-17T02:09:20.786Z,63.47
2018-05-17T02:11:24.366Z,61.63
2018-05-17T02:13:27.970Z,66.80
2018-05-17T02:15:31.573Z,71.43
2018-05-17T02:17:35.167Z,69.43
2018-05-17T02:19:38.852Z,71.87
2018-05-17T02:21:42.436Z,78.90
2018-05-17T02:23:46.012Z,78.80
2018-05-17T02:25:49.544Z,73.17
2018-05-17T02:27:53.157Z,71.43
2018-05-17T02:29:56.741Z,70.90
2018-05-17T02:32:00.313Z,64.57
2018-05-17T02:34:03.888Z,64.90
2018-05-17T02:36:07.443Z,73.83
2018-05-17T02:38:11.016Z,77.80
2018-05-17T02:40:14.611Z,72.33
2018-05-17T02:42:18.203Z,67.93
2018-05-17T02:44:21.994Z,65.60
2018-05-17T02:46:25.619Z,64.90
2018-05-17T02:48:29.207Z,69.47
2018-05-17T02:50:32.912Z,60.67
2018-05-17T02:52:36.481Z,77.73
2018-05-17T02:54:40.108Z,63.40
2018-05-17T02:56:43.694Z,66.93
2018-05-17T02:58:47.301Z,71.87
2018-05-17T03:00:51.056Z,68.57
2018-05-17T03:02:54.652Z,69.57
2018-05-17T03:04:58.255Z,75.90
2018-05-17T03:07:01.815Z,68.77
2018-05-17T03:09:08.357Z,71.00
2018-05-17T03:11:11.601Z,80.93
2018-05-17T03:13:15.141Z,82.37
2018-05-17T03:15:18.723Z,74.93
2018-05-17T03:17:22.229Z,79.63
2018-05-17T03:19:25.825Z,74.40
2018-05-17T03:21:29.117Z,83.20
2018-05-17T03:23:32.783Z,84.93
2018-05-17T03:25:36.303Z,87.73
2018-05-17T03:27:39.870Z,80.10
2018-05-17T03:29:47.430Z,81.47
2018-05-17T03:31:50.991Z,85.03
2018-05-17T03:33:54.507Z,88.73
2018-05-17T03:35:58.059Z,88.00
2018-05-17T03:38:01.693Z,82.67
2018-05-17T03:40:05.257Z,79.63
2018-05-17T03:42:08.810Z,91.20
2018-05-17T03:44:12.383Z,91.63
2018-05-17T03:46:15.865Z,93.37
2018-05-17T03:48:19.458Z,89.53
2018-05-17T03:50:22.984Z,79.93
2018-05-17T03:52:26.505Z,88.93
2018-05-17T03:54:30.025Z,85.53
2018-05-17T03:56:33.607Z,104.53
2018-05-17T03:58:37.278Z,82.87
2018-05-17T04:00:51.915Z,85.63
2018-05-17T04:03:06.424Z,83.40
2018-05-17T04:05:21.093Z,73.30
2018-05-17T04:07:24.587Z,74.17
2018-05-17T04:09:27.812Z,73.63
2018-05-17T04:11:31.340Z,79.47
2018-05-17T04:13:35.071Z,75.70
2018-05-17T04:15:38.674Z,71.37
2018-05-17T04:17:42.161Z,67.67
2018-05-17T04:19:45.789Z,68.60
2018-05-17T04:21:49.328Z,63.93
2018-05-17T04:23:52.838Z,61.27
2018-05-17T04:25:56.351Z,60.93
2018-05-17T04:27:59.917Z,69.30
2018-05-17T04:30:03.116Z,62.67
2018-05-17T04:32:06.779Z,64.03
2018-05-17T04:34:10.307Z,62.10
2018-05-17T04:36:13.864Z,63.77
2018-05-17T04:38:17.497Z,58.67
2018-05-17T04:40:21.065Z,59.40
2018-05-17T04:42:24.591Z,60.23
2018-05-17T04:44:28.109Z,71.23
2018-05-17T04:49:05.178Z,59.27
2018-05-17T04:51:08.801Z,64.90
2018-05-17T04:53:12.332Z,59.00
2018-05-17T04:55:15.871Z,64.60
2018-05-17T04:57:21.444Z,62.13
2018-05-17T04:59:26.821Z,58.33
2018-05-17T05:01:30.570Z,62.90
2018-05-17T05:03:34.225Z,56.73
2018-05-17T05:05:37.914Z,56.87
2018-05-17T05:07:41.514Z,53.13
2018-05-17T05:09:45.077Z,62.77
2018-05-17T05:11:48.606Z,46.10
2018-05-17T05:13:52.260Z,46.93
2018-05-17T05:15:55.907Z,55.03
2018-05-17T05:17:59.467Z,55.13
2018-05-17T05:20:03.143Z,53.87
2018-05-17T05:22:06.700Z,52.67
2018-05-17T05:24:10.300Z,46.30
2018-05-17T05:26:13.915Z,46.93
2018-05-17T05:28:17.478Z,51.30
2018-05-17T05:30:21.089Z,51.20
2018-05-17T05:32:25.810Z,49.23
2018-05-17T05:34:29.538Z,50.17
2018-05-17T05:36:33.160Z,50.27
2018-05-17T05:38:36.669Z,55.20
2018-05-17T05:40:40.249Z,60.83
2018-05-17T05:42:43.766Z,57.37
2018-05-17T05:44:47.090Z,52.93
2018-05-17T05:46:50.678Z,55.10
2018-05-17T05:48:54.478Z,57.20
2018-05-17T05:50:58.097Z,55.27
2018-05-17T05:53:01.625Z,54.03
2018-05-17T05:55:05.285Z,58.77
2018-05-17T05:57:08.847Z,54.87
2018-05-17T05:59:14.930Z,61.67
2018-05-17T06:01:18.509Z,58.10
2018-05-17T06:03:22.487Z,57.17
2018-05-17T06:05:26.279Z,53.20
2018-05-17T06:07:30.581Z,62.27
2018-05-17T06:09:34.118Z,59.90
2018-05-17T06:11:37.689Z,62.77
2018-05-17T06:13:41.394Z,59.43
2018-05-17T06:15:45.073Z,62.70
2018-05-17T06:17:48.693Z,60.50
2018-05-17T06:19:52.265Z,56.37
2018-05-17T06:21:55.860Z,61.53
2018-05-17T06:23:59.692Z,61.37
2018-05-17T06:26:03.252Z,62.93
2018-05-17T06:28:06.856Z,63.30
2018-05-17T06:30:10.643Z,60.73
2018-05-17T06:32:14.212Z,59.50
2018-05-17T06:34:17.878Z,66.40
2018-05-17T06:36:21.487Z,59.97
2018-05-17T06:38:24.995Z,57.87
2018-05-17T06:40:28.577Z,56.43
2018-05-17T06:42:32.111Z,52.87
2018-05-17T06:44:35.766Z,51.53
2018-05-17T06:46:39.412Z,64.13
2018-05-17T06:48:43.199Z,53.47
2018-05-17T06:50:46.964Z,55.53
2018-05-17T06:52:50.578Z,59.10
2018-05-17T06:54:54.392Z,53.92
2018-05-17T06:56:58.121Z,54.40
2018-05-17T06:59:01.824Z,46.00
2018-05-17T07:01:05.438Z,56.83
2018-05-17T07:03:09.186Z,48.13
2018-05-17T07:05:12.843Z,47.23
2018-05-17T07:07:17.020Z,46.20
2018-05-17T07:09:20.626Z,46.20
2018-05-17T07:11:24.508Z,46.60
2018-05-17T07:13:28.536Z,48.72
2018-05-17T07:15:32.139Z,45.80
2018-05-17T07:17:36.225Z,45.47
2018-05-17T07:19:39.791Z,49.47
2018-05-17T07:21:43.376Z,46.17
2018-05-17T07:23:46.944Z,47.07
2018-05-17T07:28:06.959Z,38.97
2018-05-17T07:30:15.620Z,46.37
2018-05-17T07:32:19.286Z,37.93
2018-05-17T07:34:23.257Z,40.00
2018-05-17T07:36:26.905Z,37.57
2018-05-17T07:38:31.554Z,41.60
2018-05-17T07:40:35.175Z,35.87
2018-05-17T07:42:38.763Z,36.67
2018-05-17T07:44:42.412Z,34.33
2018-05-17T07:46:46.340Z,37.37
2018-05-17T07:48:50.052Z,38.87
2018-05-17T07:50:53.659Z,33.47
2018-05-17T07:52:57.243Z,32.40
2018-05-17T07:55:00.759Z,35.73
2018-05-17T07:57:04.641Z,34.43
2018-05-17T07:59:08.195Z,34.50
2018-05-17T08:01:11.804Z,36.40
2018-05-17T08:03:15.362Z,36.00
2018-05-17T08:05:19.035Z,34.77
2018-05-17T08:07:22.707Z,41.13
2018-05-17T08:09:26.065Z,42.53
2018-05-17T08:11:29.656Z,39.00
2018-05-17T08:13:33.388Z,32.50
2018-05-17T08:15:37.010Z,37.73
2018-05-17T08:17:40.608Z,40.97
2018-05-17T08:19:44.136Z,39.87
2018-05-17T08:21:47.697Z,45.97
2018-05-17T08:23:51.288Z,37.27
2018-05-17T08:25:54.896Z,38.70
2018-05-17T08:27:58.540Z,33.57
2018-05-17T08:30:02.203Z,36.07
2018-05-17T08:32:05.899Z,34.60
2018-05-17T08:34:09.470Z,43.23
2018-05-17T08:36:13.501Z,40.10
2018-05-17T08:38:18.586Z,36.20
2018-05-17T08:40:22.518Z,36.30
2018-05-17T08:42:26.403Z,33.03
2018-05-17T08:44:29.997Z,31.87
2018-05-17T08:46:33.575Z,33.80
2018-05-17T08:48:37.205Z,33.43
2018-05-17T08:50:40.730Z,36.27
2018-05-17T08:52:45.089Z,31.73
2018-05-17T08:54:54.274Z,30.83
2018-05-17T08:57:00.500Z,36.47
2018-05-17T08:59:04.236Z,36.00
2018-05-17T09:01:07.768Z,36.63
2018-05-17T09:03:11.444Z,32.30
2018-05-17T09:05:14.989Z,35.40
2018-05-17T09:07:18.977Z,32.03
2018-05-17T09:09:22.766Z,30.33
2018-05-17T09:11:30.122Z,32.50
2018-05-17T09:13:35.882Z,36.17
2018-05-17T09:15:40.452Z,33.23
2018-05-17T09:17:44.269Z,35.67
2018-05-17T09:19:48.287Z,29.47
2018-05-17T09:21:52.035Z,33.17
2018-05-17T09:23:55.676Z,36.73
2018-05-17T09:25:59.395Z,29.13
2018-05-17T09:28:04.502Z,28.97
2018-05-17T09:30:07.783Z,26.07
2018-05-17T09:32:11.477Z,29.63
2018-05-17T09:34:15.059Z,26.17
2018-05-17T09:36:19.031Z,21.90
2018-05-17T09:38:22.691Z,23.53
2018-05-17T09:40:26.382Z,22.20
2018-05-17T09:42:30.391Z,25.33
2018-05-17T09:44:35.612Z,24.73
2018-05-17T09:46:39.240Z,24.30
2018-05-17T09:48:42.827Z,23.53
2018-05-17T09:50:46.327Z,24.23
2018-05-17T09:52:49.915Z,22.43
2018-05-17T09:54:53.837Z,23.20
2018-05-17T09:56:57.533Z,20.97
2018-05-17T09:59:01.239Z,21.43
2018-05-17T10:01:04.835Z,22.97
2018-05-17T10:03:08.454Z,21.20
2018-05-17T10:05:12.224Z,21.60
2018-05-17T10:07:15.855Z,21.53
2018-05-17T10:09:19.409Z,21.03
2018-05-17T10:11:22.952Z,23.87
2018-05-17T10:13:26.929Z,19.20
2018-05-17T10:15:30.367Z,24.30
2018-05-17T10:17:34.737Z,20.83
2018-05-17T10:19:38.380Z,21.77
2018-05-17T10:21:41.982Z,17.13
2018-05-17T10:23:45.688Z,20.07
2018-05-17T10:25:49.337Z,20.53
2018-05-17T10:27:52.968Z,21.30
2018-05-17T10:29:56.578Z,20.93
2018-05-17T10:32:00.185Z,21.67
2018-05-17T10:34:03.864Z,20.17
2018-05-17T10:36:07.485Z,19.63
2018-05-17T10:38:11.087Z,21.13
2018-05-17T10:40:15.798Z,21.83
2018-05-17T10:42:19.407Z,25.70
2018-05-17T10:44:23.143Z,23.00
2018-05-17T10:46:26.663Z,21.60
2018-05-17T10:48:30.229Z,22.30
2018-05-17T10:50:33.796Z,20.63
2018-05-17T10:52:37.810Z,22.43
2018-05-17T10:54:42.122Z,21.03
2018-05-17T10:56:46.249Z,17.07
2018-05-17T10:58:50.262Z,18.27
2018-05-17T11:00:53.824Z,16.87
2018-05-17T11:02:57.333Z,16.87
2018-05-17T11:05:00.905Z,18.33
2018-05-17T11:07:04.457Z,17.47
2018-05-17T11:09:08.025Z,17.50
2018-05-17T11:11:11.577Z,19.00
2018-05-17T11:13:15.123Z,20.97
2018-05-17T11:15:18.910Z,24.07
2018-05-17T11:17:22.605Z,20.17
2018-05-17T11:19:26.168Z,19.77
2018-05-17T11:21:29.929Z,22.63
2018-05-17T11:23:33.527Z,20.33
2018-05-17T11:25:37.162Z,22.77
2018-05-17T11:27:40.730Z,22.00
2018-05-17T11:29:44.293Z,21.73
2018-05-17T11:31:47.821Z,18.73
2018-05-17T11:33:51.382Z,22.50
2018-05-17T11:35:54.959Z,18.13
2018-05-17T11:37:58.501Z,19.17
2018-05-17T11:40:02.042Z,19.37
2018-05-17T11:42:05.649Z,16.30
2018-05-17T11:44:09.595Z,20.67
2018-05-17T11:46:14.571Z,23.73
2018-05-17T11:48:18.260Z,21.83
2018-05-17T11:50:22.935Z,16.20
2018-05-17T11:52:26.609Z,17.63
2018-05-17T11:54:30.283Z,19.63
2018-05-17T11:56:34.664Z,16.23
2018-05-17T11:58:38.198Z,19.57
2018-05-17T12:00:41.895Z,16.47
2018-05-17T12:02:45.501Z,18.83
2018-05-17T12:04:49.244Z,17.83
2018-05-17T12:06:52.782Z,20.03
2018-05-17T12:08:56.419Z,19.20
2018-05-17T12:11:00.006Z,16.60
2018-05-17T12:13:03.603Z,17.90
2018-05-17T12:15:07.232Z,17.63
2018-05-17T12:17:10.835Z,20.07
2018-05-17T12:19:14.838Z,18.10
2018-05-17T12:21:18.458Z,16.60
2018-05-17T12:23:23.591Z,16.27
2018-05-17T12:25:27.446Z,17.63
2018-05-17T12:27:31.255Z,16.00
2018-05-17T12:29:35.165Z,18.67
2018-05-17T12:31:38.833Z,16.00
2018-05-17T12:33:42.558Z,16.13
2018-05-17T12:35:48.674Z,16.57
2018-05-17T12:37:53.995Z,16.50
2018-05-17T12:39:59.199Z,14.67
2018-05-17T12:42:02.868Z,16.00
2018-05-17T12:44:10.154Z,14.93
2018-05-17T12:46:14.255Z,15.07
2018-05-17T12:48:17.805Z,15.97
2018-05-17T12:50:21.450Z,15.03
2018-05-17T12:52:25.054Z,16.20
2018-05-17T12:54:28.590Z,15.50
2018-05-17T12:56:32.112Z,14.80
2018-05-17T12:58:35.754Z,19.73
2018-05-17T13:00:39.432Z,16.60
2018-05-17T13:02:42.988Z,17.67
2018-05-17T13:04:46.585Z,19.63
2018-05-17T13:06:50.133Z,15.27
2018-05-17T13:08:53.701Z,19.27
2018-05-17T13:10:57.284Z,19.07
2018-05-17T13:13:00.930Z,19.13
2018-05-17T13:15:04.243Z,19.00
2018-05-17T13:17:07.805Z,18.43
2018-05-17T13:19:12.532Z,16.87
2018-05-17T13:21:17.846Z,18.23
2018-05-17T13:23:21.943Z,15.40
2018-05-17T13:25:25.624Z,16.60
2018-05-17T13:27:29.273Z,15.43
2018-05-17T13:29:33.038Z,16.83
2018-05-17T13:31:37.926Z,18.13
2018-05-17T13:33:44.290Z,15.90
2018-05-17T13:35:50.146Z,15.40
2018-05-17T13:37:53.718Z,15.50
2018-05-17T13:39:57.285Z,12.80
2018-05-17T13:42:00.894Z,16.57
2018-05-17T13:44:04.182Z,13.40
2018-05-17T13:46:07.822Z,13.17
2018-05-17T13:48:11.388Z,13.77
2018-05-17T13:50:15.040Z,11.83
2018-05-17T13:52:18.582Z,16.50
2018-05-17T13:54:22.203Z,14.80
2018-05-17T13:56:25.775Z,14.13
2018-05-17T13:58:29.300Z,15.63
2018-05-17T14:00:32.988Z,18.83
2018-05-17T14:02:36.691Z,18.80
2018-05-17T14:04:40.440Z,19.57
2018-05-17T14:06:43.944Z,22.47
2018-05-17T14:08:47.542Z,21.17
2018-05-17T14:10:51.084Z,23.47
2018-05-17T14:12:54.637Z,23.20
2018-05-17T14:14:58.192Z,20.23
2018-05-17T14:17:01.746Z,24.40
2018-05-17T14:19:05.341Z,23.60
2018-05-17T14:21:08.948Z,26.00
2018-05-17T14:23:12.527Z,25.73
2018-05-17T14:25:16.250Z,27.27
2018-05-17T14:27:19.945Z,63.10
2018-05-17T14:29:23.498Z,48.93
2018-05-17T14:31:27.043Z,30.80
2018-05-17T14:33:31.228Z,39.17
2018-05-17T14:35:34.775Z,27.67
2018-05-17T14:37:37.997Z,30.17
2018-05-17T14:39:41.712Z,27.80
2018-05-17T14:41:44.953Z,29.47
2018-05-17T14:43:48.566Z,67.80
2018-05-17T14:45:52.127Z,46.80
2018-05-17T14:47:56.177Z,27.60
2018-05-17T14:49:59.866Z,29.30
2018-05-17T14:52:03.415Z,25.73
2018-05-17T14:54:07.127Z,23.20
2018-05-17T14:56:10.763Z,23.37
2018-05-17T14:58:14.342Z,22.70
2018-05-17T15:00:18.279Z,18.57
2018-05-17T15:02:21.860Z,39.47
2018-05-17T15:04:25.407Z,20.23
2018-05-17T15:06:29.547Z,33.13
2018-05-17T15:08:33.857Z,18.80
2018-05-17T15:10:37.520Z,18.13
2018-05-17T15:12:41.059Z,23.47
2018-05-17T15:14:44.633Z,26.77
2018-05-17T15:16:48.243Z,22.37
2018-05-17T15:18:51.978Z,21.20
2018-05-17T15:20:55.854Z,19.70
2018-05-17T15:22:59.860Z,20.77
2018-05-17T15:25:03.479Z,26.63
2018-05-17T15:27:07.208Z,17.77
2018-05-17T15:29:11.127Z,20.73
2018-05-17T15:31:14.751Z,17.63
2018-05-17T15:33:18.689Z,22.67
2018-05-17T15:35:22.403Z,39.37
2018-05-17T15:37:26.005Z,24.97
2018-05-17T15:39:29.544Z,22.00
2018-05-17T15:41:33.320Z,17.23
2018-05-17T15:43:37.474Z,23.10
2018-05-17T15:45:41.082Z,50.13
2018-05-17T15:47:44.654Z,23.50
2018-05-17T15:49:48.557Z,16.90
2018-05-17T15:51:52.126Z,18.53
2018-05-17T15:53:55.691Z,19.63
2018-05-17T15:55:59.425Z,16.33
2018-05-17T15:58:03.247Z,13.73
2018-05-17T16:00:06.849Z,16.63
2018-05-17T16:02:10.410Z,16.73
2018-05-17T16:04:13.999Z,13.47
2018-05-17T16:06:17.701Z,16.47
2018-05-17T16:08:20.890Z,15.17
2018-05-17T16:10:24.517Z,15.37
2018-05-17T16:12:28.086Z,14.37
2018-05-17T16:14:31.842Z,17.27
2018-05-17T16:16:35.579Z,17.40
2018-05-17T16:18:39.087Z,12.77
2018-05-17T16:20:42.683Z,13.43
2018-05-17T16:22:46.321Z,16.40
2018-05-17T16:24:49.868Z,11.30
2018-05-17T16:26:53.469Z,12.40
2018-05-17T16:28:57.078Z,11.70
2018-05-17T16:31:00.734Z,13.20
2018-05-17T16:33:04.099Z,11.27
2018-05-17T16:35:07.989Z,12.37
2018-05-17T16:37:11.652Z,14.27
2018-05-17T16:39:15.392Z,12.30
2018-05-17T16:41:19.631Z,14.23
2018-05-17T16:43:23.515Z,13.77
2018-05-17T16:45:27.509Z,10.43
2018-05-17T16:47:31.645Z,14.73
2018-05-17T16:49:35.296Z,14.97
2018-05-17T16:51:38.855Z,16.73
2018-05-17T16:53:42.373Z,13.10
2018-05-17T16:55:46.036Z,16.80
2018-05-17T16:57:49.659Z,15.03
2018-05-17T16:59:53.257Z,18.23
2018-05-17T17:01:57.151Z,12.97
2018-05-17T17:04:00.890Z,14.53
2018-05-17T17:06:04.479Z,11.23
2018-05-17T17:08:08.293Z,14.83
2018-05-17T17:10:11.947Z,16.00
2018-05-17T17:12:15.635Z,16.50
2018-05-17T17:14:19.290Z,15.37
2018-05-17T17:16:23.119Z,15.03
2018-05-17T17:18:27.277Z,13.60
2018-05-17T17:20:31.359Z,16.63
2018-05-17T17:22:34.965Z,15.70
2018-05-17T17:24:39.087Z,15.43
2018-05-17T17:26:43.240Z,17.40
2018-05-17T17:28:47.086Z,13.57
2018-05-17T17:30:51.023Z,14.17
2018-05-17T17:32:55.277Z,17.10
2018-05-17T17:34:59.000Z,20.50
2018-05-17T17:37:02.623Z,16.17
2018-05-17T17:39:06.591Z,14.70
2018-05-17T17:41:10.984Z,12.43
2018-05-17T17:43:14.699Z,13.17
2018-05-17T17:45:18.411Z,16.23
2018-05-17T17:47:22.655Z,11.93
2018-05-17T17:49:26.785Z,11.33
2018-05-17T17:51:30.506Z,14.80
2018-05-17T17:53:34.304Z,12.43
2018-05-17T17:55:38.265Z,15.00
2018-05-17T17:57:42.393Z,15.30
2018-05-17T17:59:46.071Z,13.17
2018-05-17T18:01:49.704Z,17.07
2018-05-17T18:03:53.794Z,12.40
2018-05-17T18:05:58.209Z,11.73
2018-05-17T18:08:02.124Z,11.60
2018-05-17T18:10:05.633Z,20.03
2018-05-17T18:12:09.363Z,13.93
2018-05-17T18:14:13.246Z,15.93
2018-05-17T18:16:17.683Z,17.80
2018-05-17T18:18:21.719Z,20.77
2018-05-17T18:20:25.449Z,10.13
2018-05-17T18:22:29.141Z,14.47
2018-05-17T18:24:32.986Z,20.43
2018-05-17T18:26:36.600Z,12.97
2018-05-17T18:28:40.546Z,10.50
2018-05-17T18:30:44.540Z,20.13
2018-05-17T18:32:48.256Z,13.07
2018-05-17T18:34:51.865Z,16.50
2018-05-17T18:36:55.609Z,16.03
2018-05-17T18:38:59.531Z,11.70
2018-05-17T18:41:03.462Z,14.83
2018-05-17T18:43:07.537Z,17.17
2018-05-17T18:45:11.596Z,14.43
2018-05-17T18:47:15.298Z,17.77
2018-05-17T18:49:19.007Z,18.20
2018-05-17T18:51:22.830Z,18.70
2018-05-17T18:53:26.925Z,16.87
2018-05-17T18:55:30.920Z,15.87
2018-05-17T18:57:34.977Z,20.30
2018-05-17T18:59:38.730Z,20.13
2018-05-17T19:01:42.467Z,17.50
2018-05-17T19:03:46.325Z,17.67
2018-05-17T19:05:50.251Z,22.63
2018-05-17T19:07:53.989Z,16.70
2018-05-17T19:09:57.599Z,21.13
2018-05-17T19:12:01.373Z,13.93
2018-05-17T19:14:05.054Z,17.33
2018-05-17T19:16:08.895Z,15.43
2018-05-17T19:18:12.582Z,17.43
2018-05-17T19:20:16.275Z,16.83
2018-05-17T19:22:20.060Z,13.97
2018-05-17T19:24:23.781Z,15.53
2018-05-17T19:26:27.499Z,15.93
2018-05-17T19:28:31.146Z,11.53
2018-05-17T19:30:34.759Z,11.30
2018-05-17T19:32:38.382Z,15.33
2018-05-17T19:34:42.004Z,17.20
2018-05-17T19:36:45.642Z,17.43
2018-05-17T19:38:49.406Z,19.83
2018-05-17T19:40:53.380Z,18.90
2018-05-17T19:42:57.163Z,19.40
2018-05-17T19:45:00.792Z,19.80
2018-05-17T19:47:04.555Z,18.70
2018-05-17T19:49:08.142Z,23.87
2018-05-17T19:51:11.848Z,19.50
2018-05-17T19:53:15.560Z,16.47
2018-05-17T19:55:19.163Z,25.63
2018-05-17T19:57:22.774Z,19.37
2018-05-17T19:59:26.324Z,19.13
2018-05-17T20:01:29.944Z,18.97
2018-05-17T20:03:33.557Z,14.00
2018-05-17T20:05:37.192Z,18.20
2018-05-17T20:07:40.848Z,10.00
2018-05-17T20:09:44.447Z,9.73
2018-05-17T20:11:48.154Z,17.87
2018-05-17T20:13:51.829Z,15.57
2018-05-17T20:15:55.488Z,18.30
2018-05-17T20:17:59.098Z,23.20
2018-05-17T20:20:02.643Z,15.83
2018-05-17T20:22:06.442Z,21.00
2018-05-17T20:24:09.985Z,16.57
2018-05-17T20:26:13.585Z,19.17
2018-05-17T20:28:17.265Z,16.87
2018-05-17T20:30:20.872Z,16.13
2018-05-17T20:32:24.526Z,17.73
2018-05-17T20:34:28.155Z,22.50
2018-05-17T20:36:31.865Z,21.43
2018-05-17T20:38:35.617Z,16.93
2018-05-17T20:40:39.439Z,16.27
2018-05-17T20:42:43.379Z,19.95
2018-05-17T20:44:46.973Z,18.27
2018-05-17T20:46:50.596Z,12.77
2018-05-17T20:48:54.175Z,19.17
2018-05-17T20:50:57.750Z,18.57
2018-05-17T20:53:01.355Z,14.67
2018-05-17T20:55:05.026Z,18.62
2018-05-17T20:57:08.934Z,17.37
2018-05-17T20:59:12.817Z,20.12
2018-05-17T21:01:16.442Z,19.50
2018-05-17T21:03:20.370Z,17.35
2018-05-17T21:05:24.227Z,21.90
2018-05-17T21:07:28.195Z,19.62
2018-05-17T21:09:32.090Z,21.17
2018-05-17T21:11:36.095Z,19.05
2018-05-17T21:13:40.101Z,12.60
2018-05-17T21:15:44.067Z,20.90
2018-05-17T21:17:48.064Z,19.08
2018-05-17T21:19:51.921Z,21.25
2018-05-17T21:21:55.830Z,23.25
2018-05-17T21:23:59.724Z,20.02
2018-05-17T21:26:03.661Z,20.23
2018-05-17T21:28:07.628Z,20.23
2018-05-17T21:30:11.518Z,20.55
2018-05-17T21:32:15.423Z,19.30
2018-05-17T21:34:19.316Z,17.02
2018-05-17T21:36:23.173Z,19.12
2018-05-17T21:38:27.113Z,17.48
2018-05-17T21:40:30.989Z,19.87
2018-05-17T21:42:35.037Z,23.33
2018-05-17T21:44:38.950Z,18.92
2018-05-17T21:46:42.863Z,22.48
2018-05-17T21:48:46.804Z,28.65
2018-05-17T21:50:50.752Z,21.25
2018-05-17T21:52:54.710Z,18.45
2018-05-17T21:54:58.617Z,22.48
2018-05-17T21:57:02.522Z,19.75
2018-05-17T21:59:06.357Z,20.42
2018-05-17T22:01:10.236Z,20.12
2018-05-17T22:03:14.161Z,19.27
2018-05-17T22:05:18.060Z,20.45
2018-05-17T22:07:22.225Z,23.50
2018-05-17T22:09:26.223Z,19.00
2018-05-17T22:11:30.146Z,17.67
2018-05-17T22:13:34.114Z,15.13
2018-05-17T22:15:38.271Z,19.12
2018-05-17T22:17:42.236Z,21.12
2018-05-17T22:19:45.791Z,15.98
2018-05-17T22:21:49.632Z,15.25
2018-05-17T22:23:53.504Z,20.42
2018-05-17T22:25:57.391Z,21.62
2018-05-17T22:28:01.326Z,21.05
2018-05-17T22:30:04.890Z,16.33
2018-05-17T22:32:08.794Z,26.58
2018-05-17T22:34:12.687Z,13.90
2018-05-17T22:36:16.518Z,20.35
2018-05-17T22:38:20.475Z,19.08
2018-05-17T22:40:24.328Z,19.00
2018-05-17T22:42:27.879Z,15.32
2018-05-17T22:44:31.734Z,17.90
2018-05-17T22:46:35.625Z,26.27
2018-05-17T22:48:39.560Z,14.87
2018-05-17T22:50:43.412Z,12.90
2018-05-17T22:52:47.888Z,17.33
2018-05-17T22:54:51.714Z,16.62
2018-05-17T22:57:06.681Z,12.55
2018-05-17T22:59:10.240Z,20.73
2018-05-17T23:01:14.067Z,19.27
2018-05-17T23:03:17.965Z,19.52
2018-05-17T23:05:21.814Z,13.60
2018-05-17T23:07:25.745Z,15.88
2018-05-17T23:09:29.309Z,19.60
2018-05-17T23:11:33.221Z,18.73
2018-05-17T23:13:37.124Z,17.08
2018-05-17T23:15:40.985Z,21.30
2018-05-17T23:17:44.857Z,22.45
2018-05-17T23:19:48.683Z,17.52
2018-05-17T23:21:52.545Z,23.20
2018-05-17T23:23:56.101Z,18.42
2018-05-17T23:25:59.952Z,22.70
2018-05-17T23:28:03.842Z,22.35
2018-05-17T23:30:07.700Z,18.65
2018-05-17T23:32:11.192Z,19.52
2018-05-17T23:34:14.857Z,17.87
2018-05-17T23:36:18.761Z,16.23
2018-05-17T23:38:22.697Z,25.58
2018-05-17T23:40:37.659Z,26.25
2018-05-17T23:42:41.610Z,19.67
2018-05-17T23:44:45.463Z,20.17
2018-05-17T23:46:49.371Z,18.80
2018-05-17T23:48:53.268Z,22.70
2018-05-17T23:50:57.364Z,26.58
2018-05-17T23:53:01.289Z,30.70
2018-05-17T23:55:04.860Z,26.55
2018-05-17T23:57:08.758Z,29.20
2018-05-17T23:59:12.775Z,18.85
